aviador You're here:

KBRY Decoded Metar

in
Report Time2018-06-22 22:35:00
UTC Time2018-06-22 22:58:32
Flight Rules vfr VFR
Wind260° at 08 kt
W.Decomp.*RWY 21: 5.1 kt HW 6.1 kt RCW
RWY 20: 4.0 kt HW 6.9 kt RCW
W.Rank260° ranks 12
Current wind is above 260° avg. (6.9)
Visibility9999 m
Phenomena:N/A
Clouds:N/A
Expected CloudBase > 2,000 ft AGL from Temp-Dew spread
CeilingNone
Temp23°C
Dew Point18°C (74% RH)
QNH1005 hPa
Raw Report
METAR KBRY 222235Z AUTO 26008KT 10SM CLR 23/18 A2969 RMK AO1=

Extra information for KBRY:More info

Social comments